Time;durP1;ratioP1;P1;durP2;ratioP2;P2;SDS_P1;SDS_P2;PMS_P1;PMS_P2;Temp;Humidity;BMP_temperature;BMP_pressure;BME280_temperature;BME280_humidity;BME280_pressure;Samples;Min_cycle;Max_cycle;Signal;HPM_P1;HPM_P2
2020/12/13 00:01:53;;;;;;;1999.90;999.90;;;;;;;;;;5066327;28;20487;-79
2020/12/13 00:04:19;;;;;;;1999.90;999.90;;;;;;;;;;5053947;28;20090;-80
2020/12/13 00:06:45;;;;;;;1999.90;999.90;;;;;;;;;;5054264;28;20028;-80
2020/12/13 00:09:11;;;;;;;1999.90;999.90;;;;;;;;;;5054422;28;20029;-80
2020/12/13 00:11:39;;;;;;;1999.90;999.90;;;;;;;;;;5054316;28;20025;-81
2020/12/13 00:14:05;;;;;;;1999.90;999.90;;;;;;;;;;5055909;28;20762;-79
2020/12/13 00:16:31;;;;;;;1999.90;999.90;;;;;;;;;;5066766;28;20035;-80
2020/12/13 00:18:57;;;;;;;1999.90;999.90;;;;;;;;;;5072789;28;20490;-80
2020/12/13 00:21:26;;;;;;;1999.90;999.90;;;;;;;;;;5073390;28;20025;-79
2020/12/13 00:23:53;;;;;;;1999.90;999.90;;;;;;;;;;5074284;28;20032;-80
2020/12/13 00:26:19;;;;;;;1999.90;999.90;;;;;;;;;;5078483;28;20384;-80
2020/12/13 00:28:45;;;;;;;1999.90;999.90;;;;;;;;;;5077819;28;20458;-78
2020/12/13 00:31:15;;;;;;;1999.90;999.90;;;;;;;;;;5056163;28;20119;-80
2020/12/13 00:33:41;;;;;;;1999.90;999.90;;;;;;;;;;5073682;28;20483;-80
2020/12/13 00:36:07;;;;;;;1999.90;999.90;;;;;;;;;;5074329;28;20050;-78
2020/12/13 00:38:33;;;;;;;1999.90;999.90;;;;;;;;;;5074282;28;20080;-80
2020/12/13 00:40:59;;;;;;;1999.90;999.90;;;;;;;;;;5055837;28;20043;-80
2020/12/13 00:43:25;;;;;;;1999.90;999.90;;;;;;;;;;5073877;28;20472;-79
2020/12/13 00:45:51;;;;;;;1999.90;999.90;;;;;;;;;;5073944;28;20032;-79
2020/12/13 00:48:17;;;;;;;1999.90;999.90;;;;;;;;;;5074145;28;20020;-79
2020/12/13 00:50:43;;;;;;;1999.90;999.90;;;;;;;;;;5073682;28;20391;-79
2020/12/13 00:53:09;;;;;;;1999.90;999.90;;;;;;;;;;5073851;28;20051;-79
2020/12/13 00:55:35;;;;;;;1999.90;999.90;;;;;;;;;;5055661;28;20039;-78
2020/12/13 00:58:01;;;;;;;1999.90;999.90;;;;;;;;;;5073703;28;20056;-79
2020/12/13 01:00:27;;;;;;;1999.90;999.90;;;;;;;;;;5072990;28;20129;-79
2020/12/13 01:02:57;;;;;;;1999.90;999.90;;;;;;;;;;5073187;28;20040;-79
2020/12/13 01:05:24;;;;;;;1999.90;999.90;;;;;;;;;;5073489;28;20039;-79
2020/12/13 01:07:50;;;;;;;1999.90;999.90;;;;;;;;;;5073241;28;20028;-79
2020/12/13 01:10:16;;;;;;;1999.90;999.90;;;;;;;;;;5073314;28;20048;-79
2020/12/13 01:12:42;;;;;;;1999.90;999.90;;;;;;;;;;5073120;28;20031;-79
2020/12/13 01:15:09;;;;;;;1999.90;999.90;;;;;;;;;;5055309;28;20382;-79
2020/12/13 01:17:35;;;;;;;1999.90;999.90;;;;;;;;;;5073158;28;20020;-79
2020/12/13 01:20:01;;;;;;;1999.90;999.90;;;;;;;;;;5073043;28;20025;-80
2020/12/13 01:22:27;;;;;;;1999.90;999.90;;;;;;;;;;5073112;28;20025;-80
2020/12/13 01:24:53;;;;;;;1999.90;999.90;;;;;;;;;;5073172;28;20021;-79
2020/12/13 01:27:19;;;;;;;1999.90;999.90;;;;;;;;;;5072902;28;20430;-79
2020/12/13 01:29:45;;;;;;;1999.90;999.90;;;;;;;;;;5072874;28;20435;-80
2020/12/13 01:32:11;;;;;;;1999.90;999.90;;;;;;;;;;5073057;28;20392;-80
2020/12/13 01:34:37;;;;;;;1999.90;999.90;;;;;;;;;;5054917;28;20507;-80
2020/12/13 01:37:03;;;;;;;1999.90;999.90;;;;;;;;;;5073042;28;20056;-80
2020/12/13 01:39:30;;;;;;;1999.90;999.90;;;;;;;;;;5072759;28;20056;-79
2020/12/13 01:42:00;;;;;;;1999.90;999.90;;;;;;;;;;5072608;28;20099;-79
2020/12/13 01:44:30;;;;;;;1999.90;999.90;;;;;;;;;;5073026;28;20379;-80
2020/12/13 01:46:56;;;;;;;1999.90;999.90;;;;;;;;;;5054652;28;20059;-80
2020/12/13 01:49:22;;;;;;;1999.90;999.90;;;;;;;;;;5072965;28;20021;-80
2020/12/13 01:54:15;;;;;;;1999.90;999.90;;;;;;;;;;5072941;28;20630;-80
2020/12/13 01:56:47;;;;;;;1999.90;999.90;;;;;;;;;;5072562;28;20035;-81
2020/12/13 01:59:15;;;;;;;1999.90;999.90;;;;;;;;;;5072431;28;20048;-79
2020/12/13 02:01:42;;;;;;;1999.90;999.90;;;;;;;;;;5072784;28;20027;-80
2020/12/13 02:04:08;;;;;;;1999.90;999.90;;;;;;;;;;5072499;28;20509;-79
2020/12/13 02:06:35;;;;;;;1999.90;999.90;;;;;;;;;;5054656;28;20021;-78
2020/12/13 02:09:01;;;;;;;1999.90;999.90;;;;;;;;;;5072756;28;20025;-79
2020/12/13 02:11:31;;;;;;;1999.90;999.90;;;;;;;;;;5072559;28;20074;-79
2020/12/13 02:13:57;;;;;;;1999.90;999.90;;;;;;;;;;5071703;28;20032;-78
2020/12/13 02:16:23;;;;;;;1999.90;999.90;;;;;;;;;;5072847;28;20016;-78
2020/12/13 02:18:49;;;;;;;1999.90;999.90;;;;;;;;;;5072729;28;20392;-80
2020/12/13 02:21:16;;;;;;;1999.90;999.90;;;;;;;;;;5072970;28;20021;-80
2020/12/13 02:23:42;;;;;;;1999.90;999.90;;;;;;;;;;5074384;28;20471;-80
2020/12/13 02:26:09;;;;;;;1999.90;999.90;;;;;;;;;;5074713;28;20025;-80
2020/12/13 02:28:38;;;;;;;1999.90;999.90;;;;;;;;;;5072550;28;20028;-80
2020/12/13 02:31:05;;;;;;;1999.90;999.90;;;;;;;;;;5071974;28;20059;-81
2020/12/13 02:33:31;;;;;;;1999.90;999.90;;;;;;;;;;5071827;28;20123;-80
2020/12/13 02:35:58;;;;;;;1999.90;999.90;;;;;;;;;;5072187;28;20466;-79
2020/12/13 02:38:24;;;;;;;1999.90;999.90;;;;;;;;;;5072089;28;20033;-79
2020/12/13 02:40:50;;;;;;;1999.90;999.90;;;;;;;;;;5072525;28;20021;-79
2020/12/13 02:43:16;;;;;;;1999.90;999.90;;;;;;;;;;5072047;28;20016;-80
2020/12/13 02:45:42;;;;;;;1999.90;999.90;;;;;;;;;;5072237;28;20157;-79
2020/12/13 02:48:08;;;;;;;1999.90;999.90;;;;;;;;;;5072702;28;20116;-80
2020/12/13 02:50:34;;;;;;;1999.90;999.90;;;;;;;;;;5072539;28;20103;-80
2020/12/13 02:53:00;;;;;;;1999.90;999.90;;;;;;;;;;5072281;28;20120;-80
2020/12/13 02:55:26;;;;;;;1999.90;999.90;;;;;;;;;;5072712;28;20028;-79
2020/12/13 02:57:52;;;;;;;1999.90;999.90;;;;;;;;;;5072572;28;20491;-79
2020/12/13 03:00:18;;;;;;;1999.90;999.90;;;;;;;;;;5071859;28;20056;-79
2020/12/13 03:02:44;;;;;;;1999.90;999.90;;;;;;;;;;5053737;28;20383;-79
2020/12/13 03:05:10;;;;;;;1999.90;999.90;;;;;;;;;;5072664;28;20021;-79
2020/12/13 03:07:37;;;;;;;1999.90;999.90;;;;;;;;;;5072782;28;20032;-79
2020/12/13 03:10:03;;;;;;;1999.90;999.90;;;;;;;;;;5072123;28;20065;-78
2020/12/13 03:12:29;;;;;;;1999.90;999.90;;;;;;;;;;5072735;28;20434;-79
2020/12/13 03:14:56;;;;;;;1999.90;999.90;;;;;;;;;;5072154;28;20037;-78
2020/12/13 03:17:22;;;;;;;1999.90;999.90;;;;;;;;;;5074135;28;20032;-79
2020/12/13 03:19:49;;;;;;;1999.90;999.90;;;;;;;;;;5081538;28;20081;-79
2020/12/13 03:22:15;;;;;;;1999.90;999.90;;;;;;;;;;5091732;28;20085;-79
2020/12/13 03:24:41;;;;;;;1999.90;999.90;;;;;;;;;;5090095;28;20082;-78
2020/12/13 03:27:07;;;;;;;1999.90;999.90;;;;;;;;;;5086296;28;20024;-79
2020/12/13 03:29:33;;;;;;;1999.90;999.90;;;;;;;;;;5088890;28;20024;-78
2020/12/13 03:31:59;;;;;;;1999.90;999.90;;;;;;;;;;5076489;28;20033;-78
2020/12/13 03:34:25;;;;;;;1999.90;999.90;;;;;;;;;;5074814;28;20063;-79
2020/12/13 03:36:51;;;;;;;1999.90;999.90;;;;;;;;;;5075363;28;20032;-79
2020/12/13 03:39:17;;;;;;;1999.90;999.90;;;;;;;;;;5075138;28;20025;-80
2020/12/13 03:41:43;;;;;;;1999.90;999.90;;;;;;;;;;5074748;28;20458;-78
2020/12/13 03:44:13;;;;;;;1999.90;999.90;;;;;;;;;;5074675;28;20037;-79
2020/12/13 03:46:39;;;;;;;1999.90;999.90;;;;;;;;;;5074906;28;20028;-79
2020/12/13 03:49:05;;;;;;;1999.90;999.90;;;;;;;;;;5074704;28;20377;-79
2020/12/13 03:51:31;;;;;;;1999.90;999.90;;;;;;;;;;5074751;28;20028;-79
2020/12/13 03:53:57;;;;;;;1999.90;999.90;;;;;;;;;;5074381;28;20044;-78
2020/12/13 03:56:23;;;;;;;1999.90;999.90;;;;;;;;;;5056570;28;20016;-80
2020/12/13 03:58:49;;;;;;;1999.90;999.90;;;;;;;;;;5074351;28;20059;-79
2020/12/13 04:01:15;;;;;;;1999.90;999.90;;;;;;;;;;5074934;28;20138;-79
2020/12/13 04:03:41;;;;;;;1999.90;999.90;;;;;;;;;;5074419;28;20025;-79
2020/12/13 04:06:07;;;;;;;1999.90;999.90;;;;;;;;;;5074342;28;20033;-79
2020/12/13 04:08:33;;;;;;;1999.90;999.90;;;;;;;;;;5074349;28;20017;-79
2020/12/13 04:10:59;;;;;;;1999.90;999.90;;;;;;;;;;5074604;28;20032;-79
2020/12/13 04:13:25;;;;;;;1999.90;999.90;;;;;;;;;;5074282;28;20104;-78
2020/12/13 04:15:51;;;;;;;1999.90;999.90;;;;;;;;;;5074578;28;20067;-79
2020/12/13 04:18:17;;;;;;;1999.90;999.90;;;;;;;;;;5074374;28;20025;-78
2020/12/13 04:20:44;;;;;;;1999.90;999.90;;;;;;;;;;5056413;28;20123;-78
2020/12/13 04:23:10;;;;;;;1999.90;999.90;;;;;;;;;;5059449;28;20468;-79
2020/12/13 04:25:36;;;;;;;1999.90;999.90;;;;;;;;;;5080539;28;20020;-80
2020/12/13 04:28:02;;;;;;;1999.90;999.90;;;;;;;;;;5074204;28;20044;-78
2020/12/13 04:30:28;;;;;;;1999.90;999.90;;;;;;;;;;5074019;28;20032;-79
2020/12/13 04:32:54;;;;;;;1999.90;999.90;;;;;;;;;;5055749;28;20035;-79
2020/12/13 04:35:20;;;;;;;1999.90;999.90;;;;;;;;;;5073142;28;20123;-79
2020/12/13 04:37:46;;;;;;;1999.90;999.90;;;;;;;;;;5073702;28;20434;-79
2020/12/13 04:40:12;;;;;;;1999.90;999.90;;;;;;;;;;5073805;28;20021;-78
2020/12/13 04:42:38;;;;;;;1999.90;999.90;;;;;;;;;;5073781;28;20029;-77
2020/12/13 04:45:06;;;;;;;1999.90;999.90;;;;;;;;;;5073650;28;20016;-80
2020/12/13 04:47:32;;;;;;;1999.90;999.90;;;;;;;;;;5073513;28;20082;-78
2020/12/13 04:50:01;;;;;;;1999.90;999.90;;;;;;;;;;5073985;28;20067;-80
2020/12/13 04:52:27;;;;;;;1999.90;999.90;;;;;;;;;;5073815;28;20020;-80
2020/12/13 04:54:53;;;;;;;1999.90;999.90;;;;;;;;;;5073423;28;20415;-80
2020/12/13 04:57:19;;;;;;;1999.90;999.90;;;;;;;;;;5073349;28;20024;-80
2020/12/13 04:59:49;;;;;;;1999.90;999.90;;;;;;;;;;5073059;28;20450;-78
2020/12/13 05:02:16;;;;;;;1999.90;999.90;;;;;;;;;;5073186;28;20087;-78
2020/12/13 05:04:42;;;;;;;1999.90;999.90;;;;;;;;;;5073429;28;20096;-79
2020/12/13 05:07:08;;;;;;;1999.90;999.90;;;;;;;;;;5073075;28;20559;-79
2020/12/13 05:09:35;;;;;;;1999.90;999.90;;;;;;;;;;5073695;28;20029;-82
2020/12/13 05:12:01;;;;;;;1999.90;999.90;;;;;;;;;;5055182;28;20056;-78
2020/12/13 05:14:27;;;;;;;1999.90;999.90;;;;;;;;;;5073050;28;20036;-78
2020/12/13 05:17:09;;;;;;;1999.90;999.90;;;;;;;;;;5072946;28;20020;-78
2020/12/13 05:19:36;;;;;;;1999.90;999.90;;;;;;;;;;5072947;28;20025;-79
2020/12/13 05:22:02;;;;;;;1999.90;999.90;;;;;;;;;;5072833;28;20029;-78
2020/12/13 05:24:29;;;;;;;1999.90;999.90;;;;;;;;;;5073012;28;20115;-79
2020/12/13 05:27:02;;;;;;;1999.90;999.90;;;;;;;;;;5072945;28;20025;-79
2020/12/13 05:29:30;;;;;;;1999.90;999.90;;;;;;;;;;5072733;28;20028;-78
2020/12/13 05:32:08;;;;;;;1999.90;999.90;;;;;;;;;;5072730;28;20360;-80
2020/12/13 05:34:34;;;;;;;1999.90;999.90;;;;;;;;;;5072860;28;20040;-79
2020/12/13 05:37:00;;;;;;;1999.90;999.90;;;;;;;;;;5072447;28;20467;-80
2020/12/13 05:39:26;;;;;;;1999.90;999.90;;;;;;;;;;5072502;28;20039;-79
2020/12/13 05:41:52;;;;;;;1999.90;999.90;;;;;;;;;;5072674;28;20045;-80
2020/12/13 05:52:44;;;;;;;1999.90;999.90;;;;;;;;;;5010486;28;20370;-79
2020/12/13 05:55:11;;;;;;;1999.90;999.90;;;;;;;;;;5061099;28;20147;-79
2020/12/13 05:57:37;;;;;;;1999.90;999.90;;;;;;;;;;5072801;28;20028;-79
2020/12/13 06:00:07;;;;;;;1999.90;999.90;;;;;;;;;;5072247;28;20036;-79
2020/12/13 06:02:33;;;;;;;1999.90;999.90;;;;;;;;;;5052794;28;20024;-79
2020/12/13 06:05:03;;;;;;;1999.90;999.90;;;;;;;;;;5034393;28;20115;-78
2020/12/13 06:07:31;;;;;;;1999.90;999.90;;;;;;;;;;5052171;28;20484;-79
2020/12/13 06:10:02;;;;;;;1999.90;999.90;;;;;;;;;;5052111;28;20468;-80
2020/12/13 06:12:29;;;;;;;1999.90;999.90;;;;;;;;;;5052396;28;20074;-79
2020/12/13 06:14:58;;;;;;;1999.90;999.90;;;;;;;;;;5052049;28;20127;-80
2020/12/13 06:17:25;;;;;;;1999.90;999.90;;;;;;;;;;5052243;28;20552;-79
2020/12/13 06:19:51;;;;;;;1999.90;999.90;;;;;;;;;;5052619;28;20033;-78
2020/12/13 06:22:18;;;;;;;1999.90;999.90;;;;;;;;;;5064017;28;20068;-79
2020/12/13 06:24:48;;;;;;;1999.90;999.90;;;;;;;;;;5055804;28;20225;-79
2020/12/13 06:27:15;;;;;;;1999.90;999.90;;;;;;;;;;5052333;28;20025;-79
2020/12/13 06:29:42;;;;;;;1999.90;999.90;;;;;;;;;;5051984;28;20040;-80
2020/12/13 06:32:09;;;;;;;1999.90;999.90;;;;;;;;;;5052005;28;20439;-79
2020/12/13 06:34:35;;;;;;;1999.90;999.90;;;;;;;;;;5034173;28;20039;-79
2020/12/13 06:37:04;;;;;;;1999.90;999.90;;;;;;;;;;5051680;28;20480;-79
2020/12/13 06:39:31;;;;;;;1999.90;999.90;;;;;;;;;;5034109;28;20021;-78
2020/12/13 06:42:03;;;;;;;1999.90;999.90;;;;;;;;;;5051812;28;20021;-78
2020/12/13 06:44:29;;;;;;;1999.90;999.90;;;;;;;;;;5051965;28;20392;-78
2020/12/13 06:46:55;;;;;;;1999.90;999.90;;;;;;;;;;5051711;28;20052;-79
2020/12/13 06:49:21;;;;;;;1999.90;999.90;;;;;;;;;;5051951;28;20048;-78
2020/12/13 06:51:48;;;;;;;1999.90;999.90;;;;;;;;;;5051727;28;20540;-79
2020/12/13 06:54:18;;;;;;;1999.90;999.90;;;;;;;;;;5051467;28;20511;-79
2020/12/13 06:56:45;;;;;;;1999.90;999.90;;;;;;;;;;5051679;28;20063;-79
2020/12/13 06:59:11;;;;;;;1999.90;999.90;;;;;;;;;;5052980;28;20048;-78
2020/12/13 07:01:46;;;;;;;1999.90;999.90;;;;;;;;;;5058733;28;20487;-79
2020/12/13 07:04:25;;;;;;;1999.90;999.90;;;;;;;;;;5042654;28;20033;-78
2020/12/13 07:09:24;;;;;;;1999.90;999.90;;;;;;;;;;5055885;28;20039;-78
2020/12/13 07:11:51;;;;;;;1999.90;999.90;;;;;;;;;;5055478;28;20029;-78
2020/12/13 07:14:18;;;;;;;1999.90;999.90;;;;;;;;;;5055515;28;20497;-79
2020/12/13 07:16:49;;;;;;;1999.90;999.90;;;;;;;;;;5055834;28;20025;-79
2020/12/13 07:19:16;;;;;;;1999.90;999.90;;;;;;;;;;5055559;28;20021;-81
2020/12/13 07:21:43;;;;;;;1999.90;999.90;;;;;;;;;;5037425;28;20029;-79
2020/12/13 07:24:09;;;;;;;1999.90;999.90;;;;;;;;;;5055030;28;20025;-80
2020/12/13 07:26:36;;;;;;;1999.90;999.90;;;;;;;;;;5055502;28;20025;-77
2020/12/13 07:29:03;;;;;;;1999.90;999.90;;;;;;;;;;5055374;28;20059;-78
2020/12/13 07:31:36;;;;;;;1999.90;999.90;;;;;;;;;;5055218;28;20088;-78
2020/12/13 07:34:06;;;;;;;1999.90;999.90;;;;;;;;;;5054841;28;20029;-78
2020/12/13 07:36:33;;;;;;;1999.90;999.90;;;;;;;;;;5054867;28;20025;-79
2020/12/13 07:39:12;;;;;;;1999.90;999.90;;;;;;;;;;5055794;28;20053;-80
2020/12/13 07:41:38;;;;;;;1999.90;999.90;;;;;;;;;;5054989;28;20032;-79
2020/12/13 07:44:06;;;;;;;1999.90;999.90;;;;;;;;;;5054937;28;20109;-78
2020/12/13 07:46:32;;;;;;;1999.90;999.90;;;;;;;;;;5054745;28;20036;-79
2020/12/13 07:49:03;;;;;;;1999.90;999.90;;;;;;;;;;5054968;28;20021;-79
2020/12/13 07:51:29;;;;;;;1999.90;999.90;;;;;;;;;;5054705;28;20029;-79
2020/12/13 07:53:55;;;;;;;1999.90;999.90;;;;;;;;;;5054652;28;20037;-79
2020/12/13 07:56:25;;;;;;;1999.90;999.90;;;;;;;;;;5055109;28;20073;-78
2020/12/13 07:58:51;;;;;;;1999.90;999.90;;;;;;;;;;5071792;28;20072;-78
2020/12/13 08:01:18;;;;;;;1999.90;999.90;;;;;;;;;;5074286;28;20059;-78
2020/12/13 08:03:44;;;;;;;1999.90;999.90;;;;;;;;;;5074530;28;20471;-79
2020/12/13 08:06:10;;;;;;;1999.90;999.90;;;;;;;;;;5075039;28;20020;-78
2020/12/13 08:08:43;;;;;;;1999.90;999.90;;;;;;;;;;5074013;28;20021;-78
2020/12/13 08:11:11;;;;;;;1999.90;999.90;;;;;;;;;;5072946;28;20115;-78
2020/12/13 08:13:37;;;;;;;1999.90;999.90;;;;;;;;;;5057970;28;20078;-78
2020/12/13 08:16:11;;;;;;;1999.90;999.90;;;;;;;;;;5039645;28;20029;-77
2020/12/13 08:18:37;;;;;;;1999.90;999.90;;;;;;;;;;5074407;28;20107;-78
2020/12/13 08:21:03;;;;;;;1999.90;999.90;;;;;;;;;;5040737;28;20482;-79
2020/12/13 08:23:29;;;;;;;1999.90;999.90;;;;;;;;;;5066699;28;20032;-79
2020/12/13 08:25:55;;;;;;;1999.90;999.90;;;;;;;;;;5074138;28;20028;-77
2020/12/13 08:28:21;;;;;;;1999.90;999.90;;;;;;;;;;5073675;28;20118;-82
2020/12/13 08:30:49;;;;;;;1999.90;999.90;;;;;;;;;;5065783;28;20029;-77
2020/12/13 08:33:17;;;;;;;1999.90;999.90;;;;;;;;;;5063391;28;20472;-76
2020/12/13 08:35:43;;;;;;;1999.90;999.90;;;;;;;;;;5063737;28;20128;-76
2020/12/13 08:38:12;;;;;;;1999.90;999.90;;;;;;;;;;5065356;28;20111;-77
2020/12/13 08:40:41;;;;;;;1999.90;999.90;;;;;;;;;;5063498;28;20060;-82
2020/12/13 08:43:12;;;;;;;1999.90;999.90;;;;;;;;;;5066446;28;20028;-82
2020/12/13 08:45:41;;;;;;;1999.90;999.90;;;;;;;;;;5070238;28;20016;-83
2020/12/13 08:48:07;;;;;;;1999.90;999.90;;;;;;;;;;5059977;28;20025;-80
2020/12/13 08:50:42;;;;;;;1999.90;999.90;;;;;;;;;;5064830;28;20028;-80
2020/12/13 08:53:26;;;;;;;1999.90;999.90;;;;;;;;;;5072828;28;20099;-81
2020/12/13 08:56:05;;;;;;;1999.90;999.90;;;;;;;;;;5060454;28;20055;-80
2020/12/13 08:58:45;;;;;;;1999.90;999.90;;;;;;;;;;5073764;28;20021;-79
2020/12/13 09:01:11;;;;;;;1999.90;999.90;;;;;;;;;;5073540;28;20069;-79
2020/12/13 09:03:37;;;;;;;1999.90;999.90;;;;;;;;;;5075994;28;20468;-76
2020/12/13 09:06:03;;;;;;;1999.90;999.90;;;;;;;;;;5074456;28;20391;-78
2020/12/13 09:08:29;;;;;;;1999.90;999.90;;;;;;;;;;5074494;28;20108;-80
2020/12/13 09:10:57;;;;;;;1999.90;999.90;;;;;;;;;;5069880;28;20109;-79
2020/12/13 09:13:23;;;;;;;1999.90;999.90;;;;;;;;;;5071006;28;20032;-77
2020/12/13 09:15:49;;;;;;;1999.90;999.90;;;;;;;;;;5071618;28;20044;-76
2020/12/13 09:18:16;;;;;;;1999.90;999.90;;;;;;;;;;5071558;28;20029;-78
2020/12/13 09:20:42;;;;;;;1999.90;999.90;;;;;;;;;;5070532;28;20025;-79
2020/12/13 09:23:10;;;;;;;1999.90;999.90;;;;;;;;;;5071260;28;20058;-79
2020/12/13 09:25:37;;;;;;;1999.90;999.90;;;;;;;;;;5056548;28;20032;-78
2020/12/13 09:28:04;;;;;;;1999.90;999.90;;;;;;;;;;5053288;28;20468;-79
2020/12/13 09:30:30;;;;;;;1999.90;999.90;;;;;;;;;;5063459;28;20035;-79
2020/12/13 09:32:57;;;;;;;1999.90;999.90;;;;;;;;;;5040545;28;20017;-79
2020/12/13 09:35:23;;;;;;;1999.90;999.90;;;;;;;;;;5060465;28;20040;-77
2020/12/13 09:37:49;;;;;;;1999.90;999.90;;;;;;;;;;5071015;28;20021;-77
2020/12/13 09:40:15;;;;;;;1999.90;999.90;;;;;;;;;;5042792;28;20040;-78
2020/12/13 09:42:41;;;;;;;1999.90;999.90;;;;;;;;;;5067885;28;20201;-78
2020/12/13 09:45:07;;;;;;;1999.90;999.90;;;;;;;;;;5065894;28;20017;-78
2020/12/13 09:47:36;;;;;;;1999.90;999.90;;;;;;;;;;5067057;28;20016;-78
2020/12/13 09:50:02;;;;;;;1999.90;999.90;;;;;;;;;;5066541;28;20437;-80
2020/12/13 09:52:31;;;;;;;1999.90;999.90;;;;;;;;;;5065892;28;20027;-82
2020/12/13 09:54:59;;;;;;;1999.90;999.90;;;;;;;;;;5067294;28;20035;-78
2020/12/13 09:57:25;;;;;;;1999.90;999.90;;;;;;;;;;5034994;28;20090;-79
2020/12/13 09:59:51;;;;;;;1999.90;999.90;;;;;;;;;;5067868;28;20044;-78
2020/12/13 10:02:17;;;;;;;1999.90;999.90;;;;;;;;;;5046248;28;20056;-77
2020/12/13 10:04:44;;;;;;;1999.90;999.90;;;;;;;;;;5069128;28;20075;-80
2020/12/13 10:09:42;;;;;;;1999.90;999.90;;;;;;;;;;5065913;28;20036;-77
2020/12/13 10:12:11;;;;;;;1999.90;999.90;;;;;;;;;;5065903;28;20460;-78
2020/12/13 10:14:37;;;;;;;1999.90;999.90;;;;;;;;;;5069409;28;20097;-78
2020/12/13 10:17:04;;;;;;;1999.90;999.90;;;;;;;;;;5051439;28;20103;-77
2020/12/13 10:19:30;;;;;;;1999.90;999.90;;;;;;;;;;5068897;28;20025;-79
2020/12/13 10:21:56;;;;;;;1999.90;999.90;;;;;;;;;;5066904;28;20471;-78
2020/12/13 10:24:22;;;;;;;1999.90;999.90;;;;;;;;;;5066462;28;20025;-77
2020/12/13 10:26:48;;;;;;;1999.90;999.90;;;;;;;;;;5066890;28;20560;-80
2020/12/13 10:29:15;;;;;;;1999.90;999.90;;;;;;;;;;5068411;28;20035;-78
2020/12/13 10:31:41;;;;;;;1999.90;999.90;;;;;;;;;;5068075;28;20056;-78
2020/12/13 10:34:08;;;;;;;1999.90;999.90;;;;;;;;;;5067153;28;20029;-78
2020/12/13 10:36:35;;;;;;;1999.90;999.90;;;;;;;;;;5062659;28;20029;-80
2020/12/13 10:39:03;;;;;;;1999.90;999.90;;;;;;;;;;5045446;28;20479;-79
2020/12/13 10:41:29;;;;;;;1999.90;999.90;;;;;;;;;;5066175;28;20036;-78
2020/12/13 10:43:55;;;;;;;1999.90;999.90;;;;;;;;;;5068389;28;20032;-78
2020/12/13 10:46:22;;;;;;;1999.90;999.90;;;;;;;;;;5066264;28;20035;-78
2020/12/13 10:48:48;;;;;;;1999.90;999.90;;;;;;;;;;5065502;28;20021;-78
2020/12/13 10:51:15;;;;;;;1999.90;999.90;;;;;;;;;;5066229;28;20028;-80
2020/12/13 10:53:41;;;;;;;1999.90;999.90;;;;;;;;;;5063682;28;20501;-79
2020/12/13 10:56:07;;;;;;;1999.90;999.90;;;;;;;;;;5048520;28;20035;-79
2020/12/13 10:58:33;;;;;;;1999.90;999.90;;;;;;;;;;5065803;28;20073;-76
2020/12/13 11:01:02;;;;;;;1999.90;999.90;;;;;;;;;;5074259;28;20033;-79
2020/12/13 11:03:29;;;;;;;1999.90;999.90;;;;;;;;;;5062232;28;20017;-81
2020/12/13 11:05:55;;;;;;;1999.90;999.90;;;;;;;;;;5070052;28;20013;-79
2020/12/13 11:08:24;;;;;;;1999.90;999.90;;;;;;;;;;5085943;28;20029;-79
2020/12/13 11:10:50;;;;;;;1999.90;999.90;;;;;;;;;;5087050;28;20021;-79
2020/12/13 11:13:17;;;;;;;1999.90;999.90;;;;;;;;;;5068382;28;20596;-77
2020/12/13 11:15:43;;;;;;;1999.90;999.90;;;;;;;;;;5066456;28;20033;-79
2020/12/13 11:18:09;;;;;;;1999.90;999.90;;;;;;;;;;5069782;28;20024;-79
2020/12/13 11:20:35;;;;;;;1999.90;999.90;;;;;;;;;;5069541;28;20476;-78
2020/12/13 11:23:01;;;;;;;1999.90;999.90;;;;;;;;;;5070840;28;20025;-79
2020/12/13 11:25:28;;;;;;;1999.90;999.90;;;;;;;;;;5067543;28;20541;-82
2020/12/13 11:27:54;;;;;;;1999.90;999.90;;;;;;;;;;5062036;28;20033;-79
2020/12/13 11:30:20;;;;;;;1999.90;999.90;;;;;;;;;;5051435;28;20063;-79
2020/12/13 11:32:46;;;;;;;1999.90;999.90;;;;;;;;;;5051132;28;20484;-79
2020/12/13 11:35:14;;;;;;;1999.90;999.90;;;;;;;;;;5051845;28;20036;-82
2020/12/13 11:37:40;;;;;;;1999.90;999.90;;;;;;;;;;5066213;28;20020;-80
2020/12/13 11:40:07;;;;;;;1999.90;999.90;;;;;;;;;;5054430;28;20024;-82
2020/12/13 11:42:33;;;;;;;1999.90;999.90;;;;;;;;;;5062773;28;20112;-82
2020/12/13 11:44:59;;;;;;;1999.90;999.90;;;;;;;;;;5058426;28;20067;-81
2020/12/13 11:47:26;;;;;;;1999.90;999.90;;;;;;;;;;5056456;28;20033;-81
2020/12/13 11:49:52;;;;;;;1999.90;999.90;;;;;;;;;;5070638;28;20054;-81
2020/12/13 11:52:18;;;;;;;1999.90;999.90;;;;;;;;;;5062909;28;20021;-78
2020/12/13 11:54:44;;;;;;;1999.90;999.90;;;;;;;;;;5069010;28;20510;-78
2020/12/13 11:57:10;;;;;;;1999.90;999.90;;;;;;;;;;5073930;28;20022;-78
2020/12/13 11:59:36;;;;;;;1999.90;999.90;;;;;;;;;;5048554;28;20045;-78
2020/12/13 12:02:02;;;;;;;1999.90;999.90;;;;;;;;;;5052985;28;20472;-78
2020/12/13 12:04:28;;;;;;;1999.90;999.90;;;;;;;;;;5050213;28;20484;-78
2020/12/13 12:06:55;;;;;;;1999.90;999.90;;;;;;;;;;5041879;28;20064;-78
2020/12/13 12:09:21;;;;;;;1999.90;999.90;;;;;;;;;;5033786;28;20037;-78
2020/12/13 12:11:47;;;;;;;1999.90;999.90;;;;;;;;;;5050824;28;20546;-79
2020/12/13 12:14:13;;;;;;;1999.90;999.90;;;;;;;;;;5053780;28;20040;-78
2020/12/13 12:16:43;;;;;;;1999.90;999.90;;;;;;;;;;5054523;28;20492;-77
2020/12/13 12:19:10;;;;;;;1999.90;999.90;;;;;;;;;;5058168;28;20025;-79
2020/12/13 12:21:37;;;;;;;1999.90;999.90;;;;;;;;;;5053916;28;20468;-79
2020/12/13 12:24:04;;;;;;;1999.90;999.90;;;;;;;;;;5050621;28;20080;-77
2020/12/13 12:26:31;;;;;;;1999.90;999.90;;;;;;;;;;5042213;28;20033;-79
2020/12/13 12:28:58;;;;;;;1999.90;999.90;;;;;;;;;;5041875;28;20515;-79
2020/12/13 12:31:24;;;;;;;1999.90;999.90;;;;;;;;;;5033771;28;20022;-78
2020/12/13 12:33:50;;;;;;;1999.90;999.90;;;;;;;;;;5034175;28;20354;-80
2020/12/13 12:36:18;;;;;;;1999.90;999.90;;;;;;;;;;5033917;28;20040;-78
2020/12/13 12:38:44;;;;;;;1999.90;999.90;;;;;;;;;;5033770;28;20024;-78
2020/12/13 12:41:14;;;;;;;1999.90;999.90;;;;;;;;;;5033695;28;20592;-77
2020/12/13 12:43:40;;;;;;;1999.90;999.90;;;;;;;;;;5033900;28;20030;-80
2020/12/13 12:46:06;;;;;;;1999.90;999.90;;;;;;;;;;5033699;28;20473;-77
2020/12/13 12:48:32;;;;;;;1999.90;999.90;;;;;;;;;;5034327;28;20033;-79
2020/12/13 12:51:05;;;;;;;1999.90;999.90;;;;;;;;;;5033993;28;20025;-78
2020/12/13 12:53:31;;;;;;;1999.90;999.90;;;;;;;;;;5033601;28;20021;-79
2020/12/13 12:55:57;;;;;;;1999.90;999.90;;;;;;;;;;5033516;28;20033;-77
2020/12/13 12:58:26;;;;;;;1999.90;999.90;;;;;;;;;;5047034;28;20116;-78
2020/12/13 13:00:55;;;;;;;1999.90;999.90;;;;;;;;;;5073433;28;20056;-78
2020/12/13 13:03:21;;;;;;;1999.90;999.90;;;;;;;;;;5073598;28;20422;-78
2020/12/13 13:08:59;;;;;;;1999.90;999.90;;;;;;;;;;5068515;28;20021;-77
2020/12/13 13:11:09;;;;;;;1999.90;999.90;;;;;;;;;;5047781;28;20033;-77
2020/12/13 13:13:35;;;;;;;1999.90;999.90;;;;;;;;;;5054530;28;20036;-78
2020/12/13 13:16:01;;;;;;;1999.90;999.90;;;;;;;;;;5072608;28;20416;-78
2020/12/13 13:18:31;;;;;;;1999.90;999.90;;;;;;;;;;5072687;28;20031;-78
2020/12/13 13:20:59;;;;;;;1999.90;999.90;;;;;;;;;;5072781;28;20048;-79
2020/12/13 13:23:26;;;;;;;1999.90;999.90;;;;;;;;;;5072966;28;20020;-77
2020/12/13 13:25:53;;;;;;;1999.90;999.90;;;;;;;;;;5073515;28;20091;-79
2020/12/13 13:28:19;;;;;;;1999.90;999.90;;;;;;;;;;5054657;28;20023;-79
2020/12/13 13:30:45;;;;;;;1999.90;999.90;;;;;;;;;;5072579;28;20028;-80
2020/12/13 13:33:11;;;;;;;1999.90;999.90;;;;;;;;;;5069288;28;20051;-80
2020/12/13 13:35:37;;;;;;;1999.90;999.90;;;;;;;;;;5072672;28;20475;-77
2020/12/13 13:38:03;;;;;;;1999.90;999.90;;;;;;;;;;5062852;28;20027;-78
2020/12/13 13:40:30;;;;;;;1999.90;999.90;;;;;;;;;;5070376;28;20051;-79
2020/12/13 13:42:59;;;;;;;1999.90;999.90;;;;;;;;;;5069382;28;20059;-79
2020/12/13 13:50:42;;;;;;;1999.90;999.90;;;;;;;;;;5054010;28;20533;-78
2020/12/13 13:53:12;;;;;;;1999.90;999.90;;;;;;;;;;5054609;28;20017;-80
2020/12/13 13:56:15;;;;;;;1999.90;999.90;;;;;;;;;;5050525;28;20037;-78
2020/12/13 13:58:38;;;;;;;1999.90;999.90;;;;;;;;;;5065478;28;20029;-79
2020/12/13 14:01:04;;;;;;;1999.90;999.90;;;;;;;;;;5071375;28;20479;-78
2020/12/13 14:03:30;;;;;;;1999.90;999.90;;;;;;;;;;5069368;28;20391;-78
2020/12/13 14:06:02;;;;;;;1999.90;999.90;;;;;;;;;;5066876;28;20119;-78